Terminal Aerodrome Forecast
Issued by NWS Upton, NY

Home | Current Version | Previous Version | Text Only | Print | Product List | Glossary On
Versions: 1 2 3 4 5 6 7 8 9 10 11 12 13 14 15 16 17 18 19 20 21 22 23 24 25 26 27 28 29
638
FTUS41 KOKX 291437 AAB
TAFJFK
TAF AMD
KJFK 291437Z 2915/3018 07010KT 6SM -RA FEW008 OVC015
      TEMPO 2915/2916 3SM -SHRA BR
     FM291700 07009KT 5SM -DZ BR OVC015
     FM292300 08006KT 5SM BR OVC015
     FM300500 11005KT 5SM BR OVC009
     FM300700 12005KT 5SM BR OVC006
     FM301400 13005KT 5SM BR OVC015
     FM301600 14007KT 5SM BR BKN025=

USA.gov is the U.S. government's official web portal to all federal, state and local government web resources and services.